Time;durP1;ratioP1;P1;durP2;ratioP2;P2;SDS_P1;SDS_P2;PMS_P1;PMS_P2;Temp;Humidity;BMP_temperature;BMP_pressure;BME280_temperature;BME280_humidity;BME280_pressure;Samples;Min_cycle;Max_cycle;Signal;HPM_P1;HPM_P2
2023/10/20 00:00:20;;;;;;;4.87;3.80;;;7.50;99.90;;;;;;5054261;28;20463;-49
2023/10/20 00:02:45;;;;;;;5.07;4.10;;;7.50;99.90;;;;;;5054369;28;20216;-48
2023/10/20 00:05:11;;;;;;;4.70;3.10;;;7.50;99.90;;;;;;5054654;28;20215;-48
2023/10/20 00:07:37;;;;;;;4.07;3.67;;;7.50;99.90;;;;;;5054281;28;20213;-48
2023/10/20 00:10:03;;;;;;;3.67;3.37;;;7.50;99.90;;;;;;5054734;28;20188;-48
2023/10/20 00:12:30;;;;;;;4.30;3.47;;;7.40;99.90;;;;;;5054461;28;20423;-48
2023/10/20 00:14:55;;;;;;;4.57;3.90;;;7.40;99.90;;;;;;5054579;28;20419;-48
2023/10/20 00:17:21;;;;;;;3.67;3.33;;;7.40;99.90;;;;;;5054334;28;20784;-48
2023/10/20 00:19:47;;;;;;;3.90;3.50;;;7.40;99.90;;;;;;5054274;28;20532;-48
2023/10/20 00:22:13;;;;;;;3.50;3.20;;;7.40;99.90;;;;;;5054118;28;20251;-48
2023/10/20 00:24:40;;;;;;;4.00;3.30;;;7.40;99.90;;;;;;5054054;28;20407;-48
2023/10/20 00:27:05;;;;;;;3.57;3.10;;;7.40;99.90;;;;;;5054210;28;20423;-48
2023/10/20 00:29:31;;;;;;;4.23;3.23;;;7.50;99.90;;;;;;5054408;28;20767;-48
2023/10/20 00:31:56;;;;;;;7.30;3.30;;;7.40;99.90;;;;;;5054447;28;20192;-48
2023/10/20 00:34:22;;;;;;;4.37;3.67;;;7.40;99.90;;;;;;5054385;28;20182;-48
2023/10/20 00:36:47;;;;;;;5.83;3.87;;;7.20;99.90;;;;;;5054429;28;20182;-49
2023/10/20 00:39:13;;;;;;;4.03;3.07;;;7.40;99.90;;;;;;5054103;28;20570;-48
2023/10/20 00:41:38;;;;;;;4.53;3.30;;;7.40;99.90;;;;;;5053845;28;20179;-48
2023/10/20 00:44:04;;;;;;;4.90;3.87;;;7.40;99.90;;;;;;5053598;28;20187;-48
2023/10/20 00:46:31;;;;;;;5.00;3.37;;;7.30;99.90;;;;;;5053703;28;20502;-48
2023/10/20 00:48:57;;;;;;;4.30;3.30;;;7.30;99.90;;;;;;5054035;28;20179;-49
2023/10/20 00:51:24;;;;;;;4.47;3.70;;;7.30;99.90;;;;;;5053533;28;20472;-48
2023/10/20 00:53:50;;;;;;;4.03;3.63;;;7.30;99.90;;;;;;5053774;28;20449;-49
2023/10/20 00:56:17;;;;;;;4.80;3.63;;;7.30;99.90;;;;;;5053789;28;20829;-48
2023/10/20 00:58:43;;;;;;;3.80;3.40;;;7.30;99.90;;;;;;5053741;28;20425;-48
2023/10/20 01:01:08;;;;;;;4.50;3.50;;;7.30;99.90;;;;;;5053623;28;20415;-48
2023/10/20 01:03:35;;;;;;;4.20;3.70;;;7.30;99.90;;;;;;5053473;28;20219;-48
2023/10/20 01:06:03;;;;;;;4.03;3.73;;;7.30;99.90;;;;;;5053685;28;20198;-48
2023/10/20 01:08:30;;;;;;;3.87;3.50;;;7.20;99.90;;;;;;5053382;28;20425;-48
2023/10/20 01:10:56;;;;;;;4.30;3.90;;;7.20;99.90;;;;;;5053848;28;20760;-48
2023/10/20 01:13:22;;;;;;;3.83;3.53;;;7.20;99.90;;;;;;5054018;28;20423;-48
2023/10/20 01:15:49;;;;;;;5.20;4.20;;;7.20;99.90;;;;;;5053755;28;20291;-49
2023/10/20 01:18:14;;;;;;;6.30;4.23;;;7.20;99.90;;;;;;5053832;28;20810;-48
2023/10/20 01:20:40;;;;;;;7.17;3.70;;;7.20;99.90;;;;;;5052923;28;20425;-48
2023/10/20 01:23:06;;;;;;;5.07;4.07;;;7.20;99.90;;;;;;5053098;28;20205;-49
2023/10/20 01:25:31;;;;;;;4.90;3.67;;;7.20;99.90;;;;;;5053475;28;20184;-48
2023/10/20 01:27:58;;;;;;;4.73;4.13;;;7.20;99.90;;;;;;5053204;28;20185;-48
2023/10/20 01:30:25;;;;;;;5.10;4.17;;;7.20;99.90;;;;;;5053669;28;20192;-48
2023/10/20 01:32:50;;;;;;;4.70;4.20;;;7.20;99.90;;;;;;5052989;28;20433;-48
2023/10/20 01:35:16;;;;;;;4.73;4.17;;;7.20;99.90;;;;;;5053377;28;20418;-48
2023/10/20 01:37:42;;;;;;;4.70;4.20;;;7.10;99.90;;;;;;5053354;28;20652;-49
2023/10/20 01:40:09;;;;;;;5.57;4.50;;;7.10;99.90;;;;;;5053394;28;20190;-48
2023/10/20 01:42:35;;;;;;;4.00;3.60;;;7.20;99.90;;;;;;5052869;28;20476;-48
2023/10/20 01:45:02;;;;;;;5.60;4.83;;;7.20;99.90;;;;;;5053113;28;20421;-48
2023/10/20 01:47:28;;;;;;;5.77;4.33;;;7.10;99.90;;;;;;5053011;28;21006;-48
2023/10/20 01:49:53;;;;;;;5.83;4.70;;;7.10;99.90;;;;;;5052973;28;20420;-48
2023/10/20 01:52:19;;;;;;;5.57;4.83;;;7.10;99.90;;;;;;5052494;28;20285;-49
2023/10/20 01:54:46;;;;;;;7.37;4.80;;;7.10;99.90;;;;;;5052833;28;20184;-48
2023/10/20 01:57:11;;;;;;;6.17;5.20;;;7.10;99.90;;;;;;5056047;28;20194;-48
2023/10/20 01:59:37;;;;;;;5.43;4.93;;;7.10;99.90;;;;;;5056698;28;20412;-49
2023/10/20 02:02:03;;;;;;;6.00;5.07;;;7.10;99.90;;;;;;5056977;28;20205;-49
2023/10/20 02:04:30;;;;;;;5.87;5.27;;;7.00;99.90;;;;;;5057071;28;20186;-48
2023/10/20 02:06:56;;;;;;;6.07;5.27;;;7.10;99.90;;;;;;5056700;28;20440;-50
2023/10/20 02:09:25;;;;;;;8.43;6.00;;;7.00;99.90;;;;;;5056707;28;20510;-49
2023/10/20 02:11:57;;;;;;;5.97;5.37;;;7.00;99.90;;;;;;5056587;28;20265;-49
2023/10/20 02:14:23;;;;;;;6.20;5.40;;;7.00;99.90;;;;;;5057072;28;20410;-48
2023/10/20 02:16:49;;;;;;;6.13;5.00;;;6.90;99.90;;;;;;5056760;28;20781;-48
2023/10/20 02:19:15;;;;;;;5.90;4.70;;;7.00;99.90;;;;;;5056542;28;20429;-49
2023/10/20 02:21:41;;;;;;;6.30;4.90;;;7.00;99.90;;;;;;5056134;28;20642;-49
2023/10/20 02:24:07;;;;;;;9.60;5.80;;;7.00;99.90;;;;;;5056389;28;20454;-49
2023/10/20 02:26:33;;;;;;;6.47;5.13;;;6.90;99.90;;;;;;5056030;28;20190;-49
2023/10/20 02:28:59;;;;;;;5.77;4.70;;;7.00;99.90;;;;;;5056688;28;20418;-48
2023/10/20 02:31:24;;;;;;;7.50;5.67;;;6.90;99.90;;;;;;5056672;28;20646;-49
2023/10/20 02:33:50;;;;;;;8.30;5.77;;;6.90;99.90;;;;;;5056586;28;20654;-48
2023/10/20 02:36:17;;;;;;;8.03;5.17;;;6.90;99.90;;;;;;5056236;28;20217;-49
2023/10/20 02:38:43;;;;;;;7.43;5.43;;;7.00;99.90;;;;;;5056117;28;20670;-50
2023/10/20 02:41:08;;;;;;;10.00;5.50;;;6.90;99.90;;;;;;5056513;28;20456;-48
2023/10/20 02:43:34;;;;;;;7.20;5.80;;;6.90;99.90;;;;;;5056336;28;20265;-48
2023/10/20 02:46:00;;;;;;;6.27;5.07;;;6.90;99.90;;;;;;5055946;28;20221;-49
2023/10/20 02:48:27;;;;;;;9.10;5.37;;;6.90;99.90;;;;;;5055988;28;20197;-48
2023/10/20 02:50:52;;;;;;;9.20;5.63;;;6.90;99.90;;;;;;5055616;28;20474;-49
2023/10/20 02:53:18;;;;;;;7.20;5.83;;;6.90;99.90;;;;;;5055919;28;20446;-49
2023/10/20 02:55:44;;;;;;;7.10;5.30;;;6.90;99.90;;;;;;5055390;28;20192;-49
2023/10/20 02:58:10;;;;;;;6.77;6.07;;;6.90;99.90;;;;;;5056213;28;20191;-48
2023/10/20 03:00:42;;;;;;;7.80;6.07;;;6.80;99.90;;;;;;5055910;28;20413;-48
2023/10/20 03:03:08;;;;;;;7.10;5.80;;;6.80;99.90;;;;;;5055898;28;21030;-48
2023/10/20 03:05:34;;;;;;;8.40;6.53;;;6.80;99.90;;;;;;5055694;28;20423;-49
2023/10/20 03:08:00;;;;;;;8.00;6.00;;;6.80;99.90;;;;;;5055050;28;20921;-48
2023/10/20 03:10:26;;;;;;;7.60;5.90;;;6.80;99.90;;;;;;5055688;28;20662;-49
2023/10/20 03:12:52;;;;;;;8.10;6.23;;;6.80;99.90;;;;;;5055283;28;20186;-49
2023/10/20 03:15:17;;;;;;;7.40;5.90;;;6.80;99.90;;;;;;5055117;28;20409;-49
2023/10/20 03:17:43;;;;;;;8.13;5.70;;;6.80;99.90;;;;;;5055118;28;20192;-49
2023/10/20 03:20:09;;;;;;;6.47;5.33;;;6.70;99.90;;;;;;5055207;28;20196;-48
2023/10/20 03:22:35;;;;;;;10.37;5.80;;;6.70;99.90;;;;;;5055536;28;20263;-49
2023/10/20 03:25:04;;;;;;;7.93;6.33;;;6.80;99.90;;;;;;5055208;28;20563;-49
2023/10/20 03:27:30;;;;;;;9.63;7.27;;;6.80;99.90;;;;;;5055250;28;20517;-49
2023/10/20 03:29:56;;;;;;;7.07;5.40;;;6.80;99.90;;;;;;5055339;28;20484;-49
2023/10/20 03:32:22;;;;;;;6.17;4.90;;;6.70;99.90;;;;;;5054948;28;20973;-48
2023/10/20 03:34:47;;;;;;;7.30;5.07;;;6.70;99.90;;;;;;5055168;28;20310;-49
2023/10/20 03:37:13;;;;;;;5.47;4.50;;;6.70;99.90;;;;;;5055086;28;20646;-48
2023/10/20 03:39:39;;;;;;;7.53;5.03;;;6.70;99.90;;;;;;5055187;28;20531;-49
2023/10/20 03:42:07;;;;;;;5.00;4.43;;;6.70;99.90;;;;;;5054725;28;20470;-48
2023/10/20 03:44:35;;;;;;;8.93;5.10;;;6.70;99.90;;;;;;5054793;28;20466;-49
2023/10/20 03:47:01;;;;;;;6.03;5.00;;;6.70;99.90;;;;;;5055020;28;20958;-49
2023/10/20 03:49:31;;;;;;;6.90;5.17;;;6.70;99.90;;;;;;5055028;28;20420;-48
2023/10/20 03:51:56;;;;;;;6.40;4.43;;;6.70;99.90;;;;;;5054151;28;20240;-49
2023/10/20 03:54:24;;;;;;;5.40;4.37;;;6.70;99.90;;;;;;5054750;28;20435;-49
2023/10/20 03:56:50;;;;;;;12.47;4.73;;;6.70;99.90;;;;;;5054678;28;20270;-49
2023/10/20 03:59:16;;;;;;;4.37;3.97;;;6.60;99.90;;;;;;5054788;28;20452;-48
2023/10/20 04:01:42;;;;;;;5.07;4.53;;;6.60;99.90;;;;;;5054764;28;20183;-48
2023/10/20 04:04:09;;;;;;;5.20;4.70;;;6.60;99.90;;;;;;5054518;28;20498;-48
2023/10/20 04:06:36;;;;;;;6.27;5.23;;;6.60;99.90;;;;;;5054609;28;20413;-48
2023/10/20 04:09:08;;;;;;;6.57;4.63;;;6.60;99.90;;;;;;5054583;28;20413;-48
2023/10/20 04:11:34;;;;;;;7.17;5.20;;;6.60;99.90;;;;;;5054795;28;20772;-49
2023/10/20 04:14:01;;;;;;;6.60;4.80;;;6.60;99.90;;;;;;5054446;28;20424;-48
2023/10/20 04:16:27;;;;;;;5.63;4.90;;;6.60;99.90;;;;;;5054235;28;20426;-48
2023/10/20 04:18:53;;;;;;;7.70;5.20;;;6.60;99.90;;;;;;5053748;28;20404;-49
2023/10/20 04:21:19;;;;;;;5.10;4.40;;;6.60;99.90;;;;;;5054201;28;20480;-46
2023/10/20 04:23:44;;;;;;;6.90;5.40;;;6.60;99.90;;;;;;5054549;28;20462;-49
2023/10/20 04:26:26;;;;;;;6.00;4.90;;;6.60;99.90;;;;;;5054110;28;20273;-49
2023/10/20 04:53:11;;;;;;;12.50;8.93;;;6.50;99.90;;;;;;5053683;28;20423;-49
2023/10/20 04:58:34;;;;;;;10.80;6.60;;;6.50;99.90;;;;;;5053518;28;20903;-49
2023/10/20 05:01:07;;;;;;;8.73;6.20;;;6.50;99.90;;;;;;5054079;28;20880;-48
2023/10/20 05:03:45;;;;;;;9.70;7.13;;;6.50;99.90;;;;;;5053562;28;20459;-49
2023/10/20 05:06:20;;;;;;;9.43;6.67;;;6.40;99.90;;;;;;5053731;28;20466;-49
2023/10/20 05:08:46;;;;;;;9.23;7.07;;;6.40;99.90;;;;;;5053655;28;20412;-49
2023/10/20 05:11:12;;;;;;;10.40;6.70;;;6.40;99.90;;;;;;5053960;28;20439;-50
2023/10/20 05:13:38;;;;;;;8.73;6.57;;;6.40;99.90;;;;;;5053607;28;20416;-49
2023/10/20 05:16:03;;;;;;;9.27;6.50;;;6.40;99.90;;;;;;5053287;28;20175;-49
2023/10/20 05:18:29;;;;;;;9.47;6.70;;;6.40;99.90;;;;;;5053522;28;20228;-49
2023/10/20 05:20:55;;;;;;;9.97;6.63;;;6.30;99.90;;;;;;5053561;28;20190;-48
2023/10/20 05:23:21;;;;;;;11.20;6.80;;;6.30;99.90;;;;;;5053693;28;20464;-49
2023/10/20 05:25:48;;;;;;;11.80;7.20;;;6.30;99.90;;;;;;5053556;28;20186;-49
2023/10/20 05:28:15;;;;;;;7.43;6.10;;;6.30;99.90;;;;;;5053754;28;20183;-49
2023/10/20 05:30:43;;;;;;;9.20;6.70;;;6.30;99.90;;;;;;5054203;28;20411;-49
2023/10/20 05:33:09;;;;;;;10.27;6.90;;;6.30;99.90;;;;;;5039991;28;20916;-49
2023/10/20 05:35:35;;;;;;;11.07;6.83;;;6.30;99.90;;;;;;5057253;28;20428;-49
2023/10/20 05:38:00;;;;;;;8.63;6.47;;;6.40;99.90;;;;;;5057608;28;20418;-49
2023/10/20 05:40:26;;;;;;;7.90;6.40;;;6.40;99.90;;;;;;5056974;28;20705;-49
2023/10/20 05:42:51;;;;;;;7.70;6.17;;;6.30;99.90;;;;;;5057361;28;20240;-48
2023/10/20 05:45:17;;;;;;;8.20;5.90;;;6.30;99.90;;;;;;5056984;28;20181;-48
2023/10/20 05:47:43;;;;;;;8.70;6.40;;;6.20;99.90;;;;;;5057274;28;20216;-49
2023/10/20 05:50:09;;;;;;;8.83;6.40;;;6.30;99.90;;;;;;5056841;28;20182;-49
2023/10/20 05:52:35;;;;;;;9.30;6.87;;;6.30;99.90;;;;;;5056789;28;20412;-49
2023/10/20 05:55:03;;;;;;;9.40;6.53;;;6.30;99.90;;;;;;5057131;28;20417;-49
2023/10/20 05:57:29;;;;;;;7.67;6.30;;;6.30;99.90;;;;;;5056811;28;20201;-49
2023/10/20 05:59:54;;;;;;;12.97;6.27;;;6.30;99.90;;;;;;5056754;28;20514;-48
2023/10/20 06:02:20;;;;;;;7.47;5.63;;;6.30;99.90;;;;;;5056652;28;20474;-48
2023/10/20 06:04:46;;;;;;;7.93;5.73;;;6.30;99.90;;;;;;5056756;28;20291;-49
2023/10/20 06:07:11;;;;;;;7.20;5.80;;;6.30;99.90;;;;;;5056695;28;20439;-48
2023/10/20 06:09:37;;;;;;;6.53;5.40;;;7.50;99.90;;;;;;5056548;28;20201;-49
2023/10/20 06:12:06;;;;;;;7.87;5.47;;;6.30;99.90;;;;;;5056678;28;20584;-48
2023/10/20 06:14:32;;;;;;;6.27;4.97;;;6.30;99.90;;;;;;5056932;28;20189;-49
2023/10/20 06:16:58;;;;;;;5.53;4.83;;;6.30;99.90;;;;;;5056859;28;20820;-48
2023/10/20 06:19:24;;;;;;;7.60;5.20;;;6.20;99.90;;;;;;5056882;28;20183;-48
2023/10/20 06:21:50;;;;;;;7.37;5.57;;;6.20;99.90;;;;;;5056493;28;20188;-48
2023/10/20 06:24:16;;;;;;;10.33;5.70;;;6.20;99.90;;;;;;5056562;28;20474;-49
2023/10/20 06:26:42;;;;;;;5.53;4.93;;;6.20;99.90;;;;;;5056584;28;20189;-48
2023/10/20 06:32:20;;;;;;;6.70;4.60;;;6.30;99.90;;;;;;5032669;28;20601;-48
2023/10/20 06:34:46;;;;;;;6.90;5.90;;;6.30;99.90;;;;;;5056028;28;20834;-49
2023/10/20 06:37:19;;;;;;;6.93;5.53;;;6.30;99.90;;;;;;5056442;28;20429;-49
2023/10/20 06:39:44;;;;;;;7.03;4.93;;;6.30;99.90;;;;;;5056377;28;20427;-48
2023/10/20 06:42:10;;;;;;;7.63;5.57;;;6.30;99.90;;;;;;5055425;28;20409;-49
2023/10/20 06:44:35;;;;;;;6.80;5.37;;;6.30;99.90;;;;;;5055269;28;20189;-48
2023/10/20 06:47:01;;;;;;;8.63;5.43;;;6.20;99.90;;;;;;5056035;28;20181;-49
2023/10/20 06:49:27;;;;;;;6.53;5.13;;;6.20;99.90;;;;;;5055965;28;20232;-48
2023/10/20 06:51:53;;;;;;;7.57;5.50;;;6.20;99.90;;;;;;5055715;28;20245;-48
2023/10/20 06:54:19;;;;;;;7.90;4.70;;;6.30;99.90;;;;;;5055945;28;20773;-49
2023/10/20 06:56:45;;;;;;;9.43;6.20;;;6.20;99.90;;;;;;5055586;28;20186;-48
2023/10/20 06:59:13;;;;;;;7.90;6.20;;;6.30;99.90;;;;;;5055557;28;20197;-49
2023/10/20 07:01:40;;;;;;;8.17;6.13;;;6.20;99.90;;;;;;5037746;28;20209;-48
2023/10/20 07:04:08;;;;;;;9.10;5.77;;;6.30;99.90;;;;;;5055538;28;20460;-49
2023/10/20 07:06:37;;;;;;;9.47;6.20;;;6.30;99.90;;;;;;5055343;28;20425;-49
2023/10/20 07:09:14;;;;;;;8.37;6.40;;;6.30;99.90;;;;;;5055457;28;20755;-48
2023/10/20 07:11:40;;;;;;;9.00;6.47;;;6.30;99.90;;;;;;5055418;28;20412;-47
2023/10/20 07:14:06;;;;;;;7.33;5.93;;;6.30;99.90;;;;;;5055328;28;20451;-48
2023/10/20 07:16:33;;;;;;;8.77;6.47;;;6.20;99.90;;;;;;5037262;28;20408;-49
2023/10/20 07:19:00;;;;;;;10.00;6.40;;;6.30;99.90;;;;;;5052429;28;20186;-50
2023/10/20 07:21:25;;;;;;;10.27;7.63;;;6.30;99.90;;;;;;5036705;28;20510;-49
2023/10/20 07:23:51;;;;;;;8.73;6.83;;;6.30;99.90;;;;;;5054003;28;20547;-48
2023/10/20 07:26:17;;;;;;;9.90;7.20;;;6.30;99.90;;;;;;5053891;28;20193;-48
2023/10/20 07:28:44;;;;;;;8.70;6.37;;;6.30;99.90;;;;;;5054466;28;20201;-49
2023/10/20 07:31:21;;;;;;;10.43;7.27;;;6.30;99.90;;;;;;5049718;28;20445;-49
2023/10/20 07:33:49;;;;;;;9.07;7.07;;;6.40;99.90;;;;;;5039586;28;20789;-49
2023/10/20 07:36:16;;;;;;;10.77;7.40;;;6.30;99.90;;;;;;5053634;28;20442;-49
2023/10/20 07:38:42;;;;;;;10.77;7.93;;;6.30;99.90;;;;;;5054102;28;20522;-49
2023/10/20 07:41:11;;;;;;;10.40;7.70;;;6.30;99.90;;;;;;5053983;28;20796;-49
2023/10/20 07:43:39;;;;;;;12.33;8.27;;;6.30;99.90;;;;;;5053787;28;20467;-49
2023/10/20 07:46:05;;;;;;;12.77;7.73;;;6.30;99.90;;;;;;5053967;28;20483;-49
2023/10/20 07:48:32;;;;;;;12.13;8.27;;;6.30;99.90;;;;;;5053417;28;20440;-49
2023/10/20 07:51:01;;;;;;;12.47;8.50;;;6.30;99.90;;;;;;5053892;28;20528;-48
2023/10/20 07:53:29;;;;;;;14.97;9.33;;;6.30;99.90;;;;;;5054021;28;20868;-48
2023/10/20 07:55:55;;;;;;;14.00;9.50;;;6.30;99.90;;;;;;5054239;28;20413;-48
2023/10/20 07:58:20;;;;;;;16.07;9.50;;;6.30;99.90;;;;;;5054462;28;20413;-48
2023/10/20 08:00:46;;;;;;;16.07;9.63;;;6.40;99.90;;;;;;5054870;28;20420;-49
2023/10/20 08:03:12;;;;;;;15.27;10.10;;;6.40;99.90;;;;;;5037129;28;20194;-49
2023/10/20 08:05:37;;;;;;;16.17;10.20;;;6.40;99.90;;;;;;5054446;28;20221;-48
2023/10/20 08:08:04;;;;;;;14.67;9.93;;;6.30;99.90;;;;;;5054607;28;20186;-49
2023/10/20 08:10:30;;;;;;;16.40;10.90;;;6.30;99.90;;;;;;5054401;28;20182;-52
2023/10/20 08:12:56;;;;;;;15.00;10.23;;;6.40;99.90;;;;;;5054228;28;20444;-50
2023/10/20 08:15:26;;;;;;;16.00;11.23;;;6.30;99.90;;;;;;5054414;28;20467;-50
2023/10/20 08:17:52;;;;;;;15.70;10.33;;;6.40;99.90;;;;;;5054097;28;20643;-48
2023/10/20 08:20:18;;;;;;;15.37;10.50;;;6.30;99.90;;;;;;5054358;28;20436;-49
2023/10/20 08:22:43;;;;;;;14.97;11.00;;;6.30;99.90;;;;;;5054110;28;20486;-48
2023/10/20 08:25:09;;;;;;;17.03;11.17;;;6.30;99.90;;;;;;5053962;28;20184;-49
2023/10/20 08:27:35;;;;;;;19.37;11.73;;;6.30;99.90;;;;;;5053910;28;20672;-50
2023/10/20 08:30:01;;;;;;;18.13;10.43;;;6.30;99.90;;;;;;5054183;28;20419;-48
2023/10/20 08:32:26;;;;;;;16.53;11.40;;;6.30;99.90;;;;;;5053913;28;20182;-54
2023/10/20 08:34:53;;;;;;;14.83;10.63;;;6.40;99.90;;;;;;5053559;28;20200;-55
2023/10/20 08:37:18;;;;;;;19.03;10.77;;;6.30;99.90;;;;;;5054144;28;20598;-55
2023/10/20 08:39:44;;;;;;;16.87;10.50;;;6.30;99.90;;;;;;5054245;28;20447;-55
2023/10/20 08:42:15;;;;;;;16.43;11.30;;;6.30;99.90;;;;;;5054233;28;20906;-55
2023/10/20 08:44:42;;;;;;;12.80;9.10;;;6.30;99.90;;;;;;5053837;28;20661;-55
2023/10/20 08:47:09;;;;;;;13.97;9.73;;;6.30;99.90;;;;;;5053412;28;20424;-57
2023/10/20 08:49:37;;;;;;;13.50;9.17;;;6.20;99.90;;;;;;5053746;28;20945;-57
2023/10/20 08:52:05;;;;;;;15.70;9.50;;;6.20;99.90;;;;;;5053771;28;20503;-56
2023/10/20 08:54:31;;;;;;;14.03;9.70;;;6.30;99.90;;;;;;5053523;28;20470;-57
2023/10/20 08:56:57;;;;;;;12.87;8.10;;;6.30;99.90;;;;;;5053197;28;20410;-57
2023/10/20 08:59:23;;;;;;;10.20;7.43;;;6.30;99.90;;;;;;5053207;28;20522;-56
2023/10/20 09:01:51;;;;;;;14.43;8.80;;;6.30;99.90;;;;;;5053666;28;20803;-54
2023/10/20 09:04:21;;;;;;;12.37;8.63;;;6.30;99.90;;;;;;5053551;28;20490;-61
2023/10/20 09:06:47;;;;;;;13.30;9.70;;;6.30;99.90;;;;;;5053035;28;20428;-52
2023/10/20 09:09:12;;;;;;;12.93;8.70;;;6.30;99.90;;;;;;5053826;28;20409;-52
2023/10/20 09:11:40;;;;;;;10.93;7.70;;;6.20;99.90;;;;;;5053471;28;20182;-50
2023/10/20 09:14:06;;;;;;;12.97;9.00;;;6.30;99.90;;;;;;5053678;28;20184;-51
2023/10/20 09:16:34;;;;;;;13.53;9.17;;;6.30;99.90;;;;;;5053690;28;20440;-51
2023/10/20 09:18:59;;;;;;;12.53;8.80;;;6.30;99.90;;;;;;5053479;28;20420;-53
2023/10/20 09:21:28;;;;;;;13.20;8.57;;;6.30;99.90;;;;;;5053195;28;20811;-51
2023/10/20 09:23:58;;;;;;;13.10;9.37;;;6.30;99.90;;;;;;5053560;28;20268;-49
2023/10/20 09:26:26;;;;;;;13.40;9.10;;;6.30;99.90;;;;;;5053432;28;20433;-50
2023/10/20 09:28:54;;;;;;;14.37;9.40;;;6.30;99.90;;;;;;5053321;28;20421;-49
2023/10/20 09:31:20;;;;;;;18.27;10.10;;;6.20;99.90;;;;;;5052987;28;20419;-49
2023/10/20 09:33:46;;;;;;;12.77;9.47;;;6.30;99.90;;;;;;5053041;28;20431;-50
2023/10/20 09:36:12;;;;;;;14.37;8.67;;;6.20;99.90;;;;;;5053381;28;20500;-50
2023/10/20 09:38:38;;;;;;;13.53;8.80;;;6.30;99.90;;;;;;5052990;28;20221;-50
2023/10/20 09:41:12;;;;;;;12.77;9.00;;;6.20;99.90;;;;;;5052963;28;20416;-49
2023/10/20 09:43:46;;;;;;;14.77;9.50;;;6.30;99.90;;;;;;5053322;28;20205;-50
2023/10/20 09:46:52;;;;;;;12.97;9.20;;;6.20;99.90;;;;;;5053275;28;20401;-52
2023/10/20 09:49:24;;;;;;;12.77;8.33;;;6.30;99.90;;;;;;5052943;28;20420;-53
2023/10/20 09:51:50;;;;;;;16.20;9.70;;;6.40;99.90;;;;;;5053045;28;20506;-49
2023/10/20 09:54:31;;;;;;;14.07;8.60;;;6.30;99.90;;;;;;5053075;28;20905;-52
2023/10/20 09:56:57;;;;;;;11.63;8.40;;;6.30;99.90;;;;;;5053366;28;20479;-51
2023/10/20 09:59:25;;;;;;;11.00;8.07;;;6.30;99.90;;;;;;5053082;28;20505;-53
2023/10/20 10:01:56;;;;;;;14.13;8.20;;;6.30;99.90;;;;;;5053085;28;20515;-52
2023/10/20 10:04:27;;;;;;;13.60;8.60;;;6.30;99.90;;;;;;5052552;28;20945;-55
2023/10/20 10:06:52;;;;;;;9.67;8.10;;;6.30;99.90;;;;;;5052884;28;20428;-52
2023/10/20 10:09:18;;;;;;;13.07;8.43;;;6.30;99.90;;;;;;5052636;28;20920;-50
2023/10/20 10:11:45;;;;;;;10.03;7.60;;;6.30;99.90;;;;;;5052832;28;20196;-49
2023/10/20 10:14:21;;;;;;;10.80;6.87;;;6.40;99.90;;;;;;5052598;28;20186;-51
2023/10/20 10:16:56;;;;;;;10.70;7.00;;;6.40;99.90;;;;;;5052843;28;20407;-51
2023/10/20 10:19:26;;;;;;;9.80;6.97;;;6.30;99.90;;;;;;5056058;28;20419;-51
2023/10/20 10:21:54;;;;;;;8.23;6.23;;;6.30;99.90;;;;;;5056283;28;20526;-52
2023/10/20 10:24:21;;;;;;;12.60;6.83;;;6.30;99.90;;;;;;5056504;28;20464;-51
2023/10/20 10:26:53;;;;;;;8.90;6.40;;;6.30;99.90;;;;;;5056465;28;20519;-52
2023/10/20 10:29:40;;;;;;;10.10;7.27;;;6.30;99.90;;;;;;5056616;28;20411;-54
2023/10/20 10:32:19;;;;;;;8.53;6.33;;;6.30;99.90;;;;;;5056101;28;20830;-52
2023/10/20 10:34:49;;;;;;;8.47;6.77;;;6.30;99.90;;;;;;5056428;28;20774;-52
2023/10/20 10:37:16;;;;;;;9.40;6.80;;;6.40;99.90;;;;;;5056052;28;20434;-53
2023/10/20 10:39:42;;;;;;;8.33;6.30;;;6.40;99.90;;;;;;5056387;28;20805;-53
2023/10/20 10:42:08;;;;;;;6.60;5.20;;;6.30;99.90;;;;;;5055664;28;20418;-52
2023/10/20 10:44:37;;;;;;;8.30;6.40;;;6.40;99.90;;;;;;5056039;28;20189;-52
2023/10/20 10:47:03;;;;;;;7.70;5.50;;;6.40;99.90;;;;;;5055955;28;20185;-50
2023/10/20 10:49:33;;;;;;;9.00;5.80;;;6.40;99.90;;;;;;5056048;28;20777;-52
2023/10/20 10:52:04;;;;;;;8.53;6.10;;;6.40;99.90;;;;;;5055550;28;20468;-52
2023/10/20 10:54:33;;;;;;;7.30;5.50;;;6.30;99.90;;;;;;5055784;28;20938;-51
2023/10/20 10:57:03;;;;;;;9.70;5.73;;;6.40;99.90;;;;;;5055674;28;20506;-53
2023/10/20 10:59:30;;;;;;;8.17;5.90;;;6.40;99.90;;;;;;5055767;28;20403;-50
2023/10/20 11:01:56;;;;;;;7.87;6.07;;;6.40;99.90;;;;;;5055913;28;20413;-49
2023/10/20 11:04:22;;;;;;;7.77;6.03;;;6.40;99.90;;;;;;5055389;28;20464;-50
2023/10/20 11:06:48;;;;;;;7.57;5.70;;;6.40;99.90;;;;;;5055375;28;20460;-54
2023/10/20 11:09:19;;;;;;;7.17;5.50;;;6.40;99.90;;;;;;5055282;28;20409;-52
2023/10/20 11:11:47;;;;;;;6.80;5.20;;;6.40;99.90;;;;;;5055520;28;20193;-53
2023/10/20 11:14:17;;;;;;;6.90;5.30;;;6.40;99.90;;;;;;5055083;28;20430;-53
2023/10/20 11:16:43;;;;;;;8.50;5.90;;;6.40;99.90;;;;;;5055052;28;20794;-53
2023/10/20 11:19:12;;;;;;;7.60;5.60;;;6.40;99.90;;;;;;5054995;28;20417;-53
2023/10/20 11:21:56;;;;;;;5.67;4.47;;;6.40;99.90;;;;;;5055421;28;20206;-54
2023/10/20 11:24:35;;;;;;;6.30;5.40;;;6.40;99.90;;;;;;5055297;28;20957;-53
2023/10/20 11:27:02;;;;;;;6.13;5.40;;;6.40;99.90;;;;;;5055049;28;20416;-54
2023/10/20 11:29:29;;;;;;;6.57;4.90;;;6.40;99.90;;;;;;5054843;28;20407;-52
2023/10/20 11:31:56;;;;;;;8.17;5.23;;;6.40;99.90;;;;;;5054856;28;20934;-52
2023/10/20 11:34:23;;;;;;;6.80;4.93;;;6.40;99.90;;;;;;5054825;28;20423;-53
2023/10/20 11:36:48;;;;;;;6.60;5.00;;;6.40;99.90;;;;;;5055449;28;20449;-52
2023/10/20 11:39:15;;;;;;;5.43;4.80;;;6.40;99.90;;;;;;5054875;28;20866;-51
2023/10/20 11:41:41;;;;;;;5.93;4.83;;;6.50;99.90;;;;;;5054860;28;20255;-52
2023/10/20 11:44:07;;;;;;;5.77;4.70;;;6.50;99.90;;;;;;5054923;28;21006;-53
2023/10/20 11:46:33;;;;;;;8.67;4.53;;;6.40;99.90;;;;;;5054513;28;20423;-53
2023/10/20 11:48:58;;;;;;;5.70;4.07;;;6.50;99.90;;;;;;5055049;28;20186;-55
2023/10/20 11:51:24;;;;;;;5.33;4.80;;;6.50;99.90;;;;;;5054337;28;20242;-54
2023/10/20 11:53:50;;;;;;;5.60;4.43;;;6.50;99.90;;;;;;5054943;28;20185;-53
2023/10/20 11:56:16;;;;;;;4.93;4.40;;;6.50;99.90;;;;;;5054951;28;20184;-53
2023/10/20 11:58:42;;;;;;;5.33;4.20;;;6.50;99.90;;;;;;5054355;28;20424;-54
2023/10/20 12:01:08;;;;;;;4.60;4.17;;;6.50;99.90;;;;;;5054720;28;20273;-55
2023/10/20 12:03:33;;;;;;;5.70;4.60;;;6.50;99.90;;;;;;5054341;28;20556;-55
2023/10/20 12:05:59;;;;;;;4.13;3.73;;;6.60;99.90;;;;;;5054492;28;20527;-54
2023/10/20 12:08:25;;;;;;;6.40;4.20;;;6.60;99.90;;;;;;5054082;28;20189;-54
2023/10/20 12:10:50;;;;;;;8.57;4.20;;;6.50;99.90;;;;;;5054317;28;20182;-52
2023/10/20 12:13:16;;;;;;;4.63;4.23;;;6.50;99.90;;;;;;5054400;28;20525;-52
2023/10/20 12:15:42;;;;;;;4.60;4.00;;;6.60;99.90;;;;;;5053882;28;20643;-52
2023/10/20 12:18:08;;;;;;;4.30;3.90;;;6.50;99.90;;;;;;5054458;28;20236;-54
2023/10/20 12:20:33;;;;;;;4.50;4.10;;;6.50;99.90;;;;;;5054343;28;20592;-54
2023/10/20 12:22:59;;;;;;;3.97;3.47;;;6.60;99.90;;;;;;5054176;28;20218;-54
2023/10/20 12:25:25;;;;;;;4.93;4.23;;;6.60;99.90;;;;;;5054178;28;20573;-53
2023/10/20 12:27:52;;;;;;;3.90;3.30;;;6.60;99.90;;;;;;5053687;28;20420;-53
2023/10/20 12:30:17;;;;;;;4.43;3.77;;;6.60;99.90;;;;;;5053929;28;20956;-53
2023/10/20 12:32:43;;;;;;;3.40;3.10;;;6.60;99.90;;;;;;5053949;28;20501;-54
2023/10/20 12:35:12;;;;;;;5.73;3.40;;;6.60;99.90;;;;;;5053997;28;20182;-51
2023/10/20 12:37:38;;;;;;;3.67;3.37;;;6.60;99.90;;;;;;5054213;28;20212;-50
2023/10/20 12:40:05;;;;;;;3.20;2.90;;;6.60;99.90;;;;;;5053672;28;20468;-51
2023/10/20 12:42:31;;;;;;;8.20;3.60;;;6.60;99.90;;;;;;5053339;28;20683;-52
2023/10/20 12:45:00;;;;;;;4.50;3.20;;;6.60;99.90;;;;;;5053610;28;20464;-52
2023/10/20 12:47:26;;;;;;;3.93;2.93;;;6.70;99.90;;;;;;5053401;28;20787;-53
2023/10/20 12:49:55;;;;;;;2.90;2.70;;;6.60;99.90;;;;;;5053667;28;20432;-53
2023/10/20 12:52:20;;;;;;;3.30;3.00;;;6.70;99.90;;;;;;5053354;28;20462;-53
2023/10/20 12:54:46;;;;;;;3.27;2.90;;;6.60;99.90;;;;;;5054050;28;20747;-52
2023/10/20 12:57:12;;;;;;;4.77;3.17;;;6.60;99.90;;;;;;5053886;28;20667;-51
2023/10/20 12:59:38;;;;;;;3.70;3.40;;;6.60;99.90;;;;;;5054114;28;20188;-52
2023/10/20 13:02:04;;;;;;;3.30;3.00;;;6.60;99.90;;;;;;5053518;28;20419;-51
2023/10/20 13:04:30;;;;;;;3.00;2.80;;;6.60;99.90;;;;;;5053587;28;20222;-53
2023/10/20 13:06:56;;;;;;;3.00;2.70;;;6.60;99.90;;;;;;5053809;28;20567;-54
2023/10/20 13:09:23;;;;;;;3.17;2.97;;;6.60;99.90;;;;;;5053764;28;20414;-55
2023/10/20 13:11:48;;;;;;;3.10;2.90;;;6.70;99.90;;;;;;5053522;28;20190;-54
2023/10/20 13:14:14;;;;;;;3.40;2.60;;;6.60;99.90;;;;;;5053560;28;20408;-54
2023/10/20 13:16:40;;;;;;;3.53;2.93;;;6.70;99.90;;;;;;5053469;28;20227;-53
2023/10/20 13:19:06;;;;;;;3.33;3.03;;;6.70;99.90;;;;;;5053661;28;20443;-52
2023/10/20 13:21:32;;;;;;;3.30;3.10;;;6.70;99.90;;;;;;5053940;28;20257;-52